| time (UTC) | temp F | wind direction | speed knots | gust knots | rain 1hr in | rain 24hr in | rain mn in | humidity % | barometer mb |
| 20260510060757 | 55 | 166 | 0.0 | 0.0 | 0.00 | 0.00 | 0.00 | 94 | 1013.9 |
| 20260510055757 | 55 | 166 | 0.0 | 0.0 | 0.00 | 0.00 | 0.00 | 94 | 1013.7 |
| 20260510054755 | 55 | 166 | 0.0 | 0.0 | 0.00 | 0.00 | 0.00 | 93 | 1013.8 |
| 20260510053751 | 56 | 166 | 0.0 | 0.0 | 0.00 | 0.00 | 0.00 | 92 | 1013.5 |
| 20260510052750 | 56 | 166 | 0.0 | 0.0 | 0.00 | 0.00 | 0.00 | 92 | 1013.6 |
| 20260510051748 | 56 | 166 | 0.0 | 0.0 | 0.00 | 0.00 | 0.00 | 91 | 1013.8 |
| 20260510050747 | 57 | 166 | 0.0 | 0.0 | 0.00 | 0.00 | 0.00 | 90 | 1014.0 |
| 20260510045747 | 57 | 166 | 0.0 | 0.0 | 0.00 | 0.00 | 0.00 | 90 | 1013.8 |
| 20260510044747 | 58 | 166 | 0.0 | 0.0 | 0.00 | 0.00 | 0.00 | 89 | 1013.7 |
| 20260510043745 | 58 | 166 | 0.0 | 0.0 | 0.00 | 0.00 | 0.00 | 88 | 1013.8 |
| 20260510042745 | 59 | 166 | 0.0 | 0.0 | 0.00 | 0.00 | 0.00 | 87 | 1013.6 |
| 20260510041744 | 59 | 166 | 0.0 | 0.0 | 0.00 | 0.00 | 0.00 | 86 | 1013.8 |
| 20260510040744 | 59 | 166 | 0.9 | 0.9 | 0.00 | 0.00 | 0.00 | 87 | 1013.5 |
| 20260510035742 | 59 | 166 | 0.0 | 0.0 | 0.00 | 0.00 | 0.00 | 87 | 1013.7 |
| 20260510034740 | 59 | 166 | 0.0 | 0.0 | 0.00 | 0.00 | 0.00 | 87 | 1013.4 |
| 20260510033740 | 59 | 166 | 0.0 | 0.0 | 0.00 | 0.00 | 0.00 | 87 | 1013.5 |
| 20260510032739 | 59 | 166 | 0.0 | 0.0 | 0.00 | 0.00 | 0.00 | 87 | 1013.5 |
| 20260510031737 | 59 | 166 | 0.0 | 0.0 | 0.00 | 0.00 | 0.00 | 87 | 1013.6 |
| 20260510030733 | 60 | 166 | 0.0 | 0.0 | 0.00 | 0.00 | 0.00 | 87 | 1013.8 |
| 20260510025727 | 60 | 166 | 0.0 | 0.0 | 0.00 | 0.00 | 0.00 | 86 | 1013.6 |
| 20260510024728 | 60 | 166 | 0.0 | 0.0 | 0.00 | 0.00 | 0.00 | 84 | 1013.5 |
| 20260510023725 | 60 | 166 | 0.0 | 0.0 | 0.00 | 0.00 | 0.00 | 83 | 1013.5 |
| 20260510022725 | 61 | 166 | 0.0 | 0.0 | 0.00 | 0.00 | 0.00 | 83 | 1013.1 |
| 20260510021720 | 61 | 166 | 0.0 | 0.0 | 0.00 | 0.00 | 0.00 | 82 | 1013.4 |
| 20260510020719 | 61 | 166 | 0.0 | 0.0 | 0.00 | 0.00 | 0.00 | 82 | 1013.0 |
| 20260510015715 | 61 | 166 | 0.0 | 0.0 | 0.00 | 0.00 | 0.00 | 81 | 1013.2 |
| 20260510014713 | 62 | 166 | 0.0 | 0.0 | 0.00 | 0.00 | 0.00 | 81 | 1012.9 |
| 20260510013711 | 61 | 166 | 0.0 | 0.0 | 0.00 | 0.00 | 0.00 | 81 | 1012.8 |
| 20260510012707 | 61 | 166 | 0.0 | 0.0 | 0.00 | 0.00 | 0.00 | 80 | 1012.9 |
| 20260510011703 | 62 | 166 | 0.0 | 0.0 | 0.00 | 0.00 | 0.00 | 80 | 1012.5 |
| 20260510010701 | 62 | 166 | 0.0 | 0.0 | 0.00 | 0.00 | 0.00 | 79 | 1012.4 |
| 20260510005701 | 62 | 166 | 0.0 | 0.0 | 0.00 | 0.00 | 0.00 | 78 | 1012.5 |
| 20260510004655 | 63 | 166 | 0.0 | 0.0 | 0.00 | 0.00 | 0.00 | 77 | 1012.3 |
| 20260510003650 | 64 | 166 | 0.0 | 0.0 | 0.00 | 0.00 | 0.00 | 76 | 1012.3 |
| 20260510002646 | 64 | 166 | 0.0 | 0.0 | 0.00 | 0.00 | 0.00 | 74 | 1012.3 |
| 20260510001645 | 66 | 166 | 0.0 | 0.0 | 0.00 | 0.00 | 0.00 | 72 | 1012.3 |
| 20260510000644 | 67 | 166 | 0.0 | 0.0 | 0.00 | 0.00 | 0.00 | 70 | 1012.1 |
| 20260509235644 | 68 | 166 | 0.0 | 0.0 | 0.00 | 0.00 | 0.00 | 68 | 1012.0 |
| 20260509234643 | 69 | 166 | 0.0 | 0.0 | 0.00 | 0.00 | 0.00 | 64 | 1012.2 |
| 20260509233638 | 70 | 166 | 0.0 | 0.0 | 0.00 | 0.00 | 0.00 | 62 | 1011.8 |
| 20260509232636 | 71 | 166 | 0.0 | 0.0 | 0.00 | 0.00 | 0.00 | 60 | 1011.7 |
| 20260509231636 | 71 | 166 | 0.0 | 0.0 | 0.00 | 0.00 | 0.00 | 56 | 1012.0 |
| 20260509230636 | 71 | 166 | 0.0 | 0.9 | 0.00 | 0.00 | 0.00 | 56 | 1011.6 |
| 20260509225635 | 71 | 166 | 0.0 | 0.9 | 0.00 | 0.00 | 0.00 | 54 | 1011.7 |
| 20260509224632 | 72 | 166 | 0.9 | 1.7 | 0.00 | 0.00 | 0.00 | 53 | 1011.8 |
| 20260509223626 | 73 | 186 | 0.0 | 0.0 | 0.00 | 0.00 | 0.00 | 51 | 1011.8 |
| 20260509222626 | 73 | 159 | 0.0 | 0.0 | 0.00 | 0.00 | 0.00 | 49 | 1011.5 |
| 20260509221624 | 72 | 186 | 0.0 | 0.9 | 0.00 | 0.00 | 0.00 | 51 | 1011.8 |
| 20260509220621 | 72 | 186 | 0.9 | 1.7 | 0.00 | 0.00 | 0.00 | 49 | 1012.1 |
| 20260509215620 | 72 | 167 | 0.0 | 0.0 | 0.00 | 0.00 | 0.00 | 53 | 1011.8 |
| 20260509214620 | 73 | 166 | 0.0 | 0.9 | 0.00 | 0.00 | 0.00 | 53 | 1011.7 |
| 20260509213618 | 73 | 169 | 0.9 | 1.7 | 0.00 | 0.00 | 0.00 | 53 | 1011.6 |
| 20260509212618 | 73 | 152 | 0.9 | 1.7 | 0.00 | 0.00 | 0.00 | 53 | 1011.3 |
| 20260509211617 | 73 | 154 | 0.0 | 0.9 | 0.00 | 0.00 | 0.00 | 52 | 1011.6 |
| 20260509210616 | 73 | 157 | 0.9 | 0.9 | 0.00 | 0.00 | 0.00 | 53 | 1011.6 |
| 20260509205613 | 74 | 169 | 0.0 | 0.0 | 0.00 | 0.00 | 0.00 | 55 | 1011.6 |
| 20260509204611 | 72 | 164 | 0.0 | 0.9 | 0.00 | 0.00 | 0.00 | 56 | 1011.7 |
| 20260509203609 | 72 | 198 | 0.9 | 0.9 | 0.00 | 0.00 | 0.00 | 55 | 1011.6 |
| 20260509202608 | 73 | 181 | 0.9 | 1.7 | 0.00 | 0.00 | 0.00 | 56 | 1011.3 |
| 20260509201604 | 73 | 183 | 1.7 | 1.7 | 0.00 | 0.00 | 0.00 | 55 | 1011.4 |
| 20260509200602 | 73 | 231 | 1.7 | 2.6 | 0.00 | 0.00 | 0.00 | 54 | 1011.4 |
| 20260509195600 | 73 | 147 | 1.7 | 2.6 | 0.00 | 0.00 | 0.00 | 55 | 1011.9 |
| 20260509194600 | 73 | 186 | 0.0 | 0.9 | 0.00 | 0.00 | 0.00 | 55 | 1011.7 |
| 20260509193600 | 73 | 209 | 0.9 | 0.9 | 0.00 | 0.00 | 0.00 | 56 | 1012.0 |
| 20260509192559 | 71 | 183 | 1.7 | 2.6 | 0.00 | 0.00 | 0.00 | 57 | 1012.3 |
| 20260509191554 | 70 | 188 | 0.9 | 2.6 | 0.00 | 0.00 | 0.00 | 57 | 1012.4 |
| 20260509190553 | 70 | 187 | 0.9 | 1.7 | 0.00 | 0.00 | 0.00 | 59 | 1012.4 |
| 20260509185548 | 69 | 177 | 0.0 | 0.9 | 0.00 | 0.00 | 0.00 | 61 | 1012.4 |
| 20260509184543 | 69 | 186 | 0.9 | 0.9 | 0.00 | 0.00 | 0.00 | 60 | 1012.6 |
| 20260509183540 | 69 | 165 | 0.9 | 1.7 | 0.00 | 0.00 | 0.00 | 60 | 1012.5 |
| 20260509182539 | 68 | 168 | 0.9 | 0.9 | 0.00 | 0.00 | 0.00 | 63 | 1012.7 |
| 20260509181534 | 68 | 173 | 0.0 | 1.7 | 0.00 | 0.00 | 0.00 | 61 | 1012.8 |
| 20260509180532 | 68 | 193 | 0.9 | 1.7 | 0.00 | 0.00 | 0.00 | 62 | 1013.2 |
| 20260509175531 | 68 | 187 | 0.9 | 1.7 | 0.00 | 0.00 | 0.00 | 62 | 1013.4 |
| 20260509174530 | 67 | 158 | 0.0 | 1.7 | 0.00 | 0.00 | 0.00 | 63 | 1013.7 |
| 20260509173526 | 68 | 186 | 0.9 | 0.9 | 0.00 | 0.00 | 0.00 | 62 | 1013.6 |
| 20260509172526 | 68 | 178 | 0.0 | 0.0 | 0.00 | 0.00 | 0.00 | 62 | 1013.3 |
| 20260509171523 | 68 | 195 | 0.9 | 1.7 | 0.00 | 0.00 | 0.00 | 60 | 1013.5 |
| 20260509170521 | 69 | 266 | 1.7 | 2.6 | 0.00 | 0.00 | 0.00 | 60 | 1013.7 |
| 20260509165522 | 67 | 153 | 0.9 | 2.6 | 0.00 | 0.00 | 0.00 | 61 | 1013.4 |
| 20260509164519 | 68 | 188 | 0.9 | 1.7 | 0.00 | 0.00 | 0.00 | 63 | 1013.7 |
| 20260509163519 | 67 | 145 | 0.9 | 1.7 | 0.00 | 0.00 | 0.00 | 64 | 1013.9 |
| 20260509162517 | 67 | 163 | 0.0 | 0.9 | 0.00 | 0.00 | 0.00 | 63 | 1013.9 |
| 20260509161516 | 66 | 185 | 0.0 | 0.9 | 0.00 | 0.00 | 0.00 | 64 | 1013.6 |
| 20260509160512 | 66 | 173 | 0.9 | 0.9 | 0.00 | 0.00 | 0.00 | 64 | 1013.7 |
| 20260509155509 | 67 | 101 | 1.7 | 1.7 | 0.00 | 0.00 | 0.00 | 62 | 1013.7 |
| 20260509154508 | 66 | 155 | 0.0 | 1.7 | 0.00 | 0.00 | 0.00 | 62 | 1014.0 |
| 20260509153508 | 66 | 185 | 0.9 | 1.7 | 0.00 | 0.00 | 0.00 | 63 | 1014.0 |
| 20260509152506 | 67 | 155 | 0.9 | 1.7 | 0.00 | 0.00 | 0.00 | 61 | 1013.9 |
| 20260509151505 | 66 | 180 | 0.9 | 1.7 | 0.00 | 0.00 | 0.00 | 62 | 1014.0 |
| 20260509150500 | 65 | 176 | 0.0 | 1.7 | 0.00 | 0.00 | 0.00 | 63 | 1014.0 |
| 20260509145500 | 64 | 171 | 0.9 | 1.7 | 0.00 | 0.00 | 0.00 | 66 | 1014.3 |
| 20260509144459 | 63 | 170 | 0.9 | 1.7 | 0.00 | 0.00 | 0.00 | 65 | 1014.4 |
| 20260509143458 | 62 | 137 | 0.9 | 1.7 | 0.00 | 0.00 | 0.00 | 66 | 1014.6 |
| 20260509142457 | 61 | 148 | 0.9 | 0.9 | 0.00 | 0.00 | 0.00 | 69 | 1014.7 |
| 20260509141455 | 60 | 157 | 0.9 | 1.7 | 0.00 | 0.00 | 0.00 | 67 | 1014.9 |
| 20260509140454 | 60 | 168 | 0.9 | 0.9 | 0.00 | 0.00 | 0.00 | 69 | 1014.8 |
| 20260509135450 | 59 | 168 | 0.0 | 0.9 | 0.00 | 0.00 | 0.00 | 68 | 1014.5 |
| 20260509134445 | 59 | 167 | 0.0 | 0.9 | 0.00 | 0.00 | 0.00 | 70 | 1014.5 |
| 20260509133444 | 58 | 167 | 0.9 | 0.9 | 0.00 | 0.00 | 0.00 | 69 | 1014.8 |
| 20260509132440 | 58 | 165 | 0.0 | 0.0 | 0.00 | 0.00 | 0.00 | 69 | 1014.8 |
| 20260509131440 | 58 | 165 | 0.0 | 0.9 | 0.00 | 0.00 | 0.00 | 69 | 1014.8 |
| 20260509130438 | 57 | 179 | 0.0 | 0.9 | 0.00 | 0.00 | 0.00 | 69 | 1014.9 |
| 20260509125438 | 57 | 186 | 0.0 | 0.9 | 0.00 | 0.00 | 0.00 | 68 | 1014.7 |
| 20260509124437 | 57 | 176 | 0.0 | 0.9 | 0.00 | 0.00 | 0.00 | 68 | 1014.6 |
| 20260509123437 | 57 | 183 | 0.0 | 0.9 | 0.00 | 0.00 | 0.00 | 67 | 1014.6 |
| 20260509122436 | 57 | 172 | 0.9 | 1.7 | 0.00 | 0.00 | 0.00 | 66 | 1014.6 |
| 20260509121435 | 57 | 153 | 0.9 | 0.9 | 0.00 | 0.00 | 0.00 | 66 | 1014.6 |
| 20260509120431 | 57 | 153 | 0.9 | 0.9 | 0.00 | 0.00 | 0.00 | 65 | 1014.8 |
| 20260509115426 | 57 | 177 | 0.9 | 1.7 | 0.00 | 0.00 | 0.00 | 64 | 1014.6 |
| 20260509114422 | 57 | 172 | 0.9 | 1.7 | 0.00 | 0.00 | 0.00 | 62 | 1014.6 |
| 20260509113418 | 58 | 160 | 0.9 | 0.9 | 0.00 | 0.00 | 0.00 | 61 | 1014.6 |
| 20260509112418 | 58 | 165 | 0.9 | 1.7 | 0.00 | 0.00 | 0.00 | 60 | 1014.8 |
| 20260509111418 | 58 | 176 | 0.9 | 0.9 | 0.00 | 0.00 | 0.00 | 60 | 1014.6 |
| 20260509110417 | 58 | 177 | 0.0 | 0.9 | 0.00 | 0.00 | 0.00 | 59 | 1014.4 |
| 20260509105413 | 58 | 174 | 0.9 | 0.9 | 0.00 | 0.00 | 0.00 | 59 | 1014.1 |
| 20260509104413 | 57 | 173 | 0.0 | 0.9 | 0.00 | 0.00 | 0.00 | 59 | 1014.0 |
| 20260509103413 | 58 | 173 | 0.9 | 0.9 | 0.00 | 0.00 | 0.00 | 59 | 1014.1 |
| 20260509102409 | 58 | 173 | 0.9 | 0.9 | 0.00 | 0.00 | 0.00 | 59 | 1014.3 |
| 20260509101407 | 57 | 173 | 0.0 | 0.9 | 0.00 | 0.00 | 0.00 | 59 | 1014.1 |
| 20260509100407 | 57 | 173 | 0.0 | 0.9 | 0.00 | 0.00 | 0.00 | 59 | 1014.1 |
| 20260509095408 | 58 | 173 | 0.0 | 0.0 | 0.00 | 0.00 | 0.00 | 58 | 1014.0 |
| 20260509094406 | 58 | 173 | 0.9 | 0.9 | 0.00 | 0.00 | 0.00 | 58 | 1013.9 |
| 20260509093401 | 58 | 168 | 0.0 | 0.9 | 0.00 | 0.00 | 0.00 | 58 | 1013.9 |
| 20260509092357 | 58 | 163 | 0.0 | 0.9 | 0.00 | 0.00 | 0.00 | 59 | 1014.3 |
| 20260509091352 | 57 | 178 | 0.9 | 0.9 | 0.00 | 0.00 | 0.00 | 59 | 1014.0 |
| 20260509090352 | 57 | 168 | 0.0 | 0.0 | 0.00 | 0.00 | 0.00 | 60 | 1014.4 |
| 20260509085352 | 57 | 164 | 0.0 | 0.9 | 0.00 | 0.00 | 0.00 | 59 | 1014.4 |
| 20260509084351 | 57 | 164 | 0.0 | 0.0 | 0.00 | 0.00 | 0.00 | 60 | 1014.7 |
| 20260509083351 | 57 | 171 | 0.9 | 1.7 | 0.00 | 0.00 | 0.00 | 60 | 1014.5 |
| 20260509082351 | 57 | 180 | 0.9 | 1.7 | 0.00 | 0.00 | 0.00 | 60 | 1014.5 |
| 20260509081350 | 56 | 167 | 0.9 | 1.7 | 0.00 | 0.00 | 0.00 | 61 | 1014.8 |
| 20260509080346 | 56 | 172 | 0.9 | 1.7 | 0.00 | 0.00 | 0.00 | 61 | 1014.7 |
| 20260509075341 | 56 | 140 | 1.7 | 1.7 | 0.00 | 0.00 | 0.00 | 61 | 1014.9 |
| 20260509074341 | 56 | 173 | 0.9 | 1.7 | 0.00 | 0.00 | 0.00 | 61 | 1014.9 |
| 20260509073340 | 56 | 153 | 0.9 | 1.7 | 0.00 | 0.00 | 0.00 | 61 | 1014.8 |
| 20260509072339 | 57 | 167 | 1.7 | 1.7 | 0.00 | 0.00 | 0.00 | 60 | 1014.9 |
| 20260509071338 | 57 | 163 | 0.9 | 0.9 | 0.00 | 0.00 | 0.00 | 59 | 1014.9 |
| 20260509070338 | 57 | 166 | 0.9 | 1.7 | 0.00 | 0.00 | 0.00 | 58 | 1015.0 |
| 20260509065337 | 58 | 169 | 0.9 | 0.9 | 0.00 | 0.00 | 0.00 | 56 | 1015.0 |
| 20260509064336 | 58 | 169 | 0.9 | 2.6 | 0.00 | 0.00 | 0.00 | 55 | 1015.0 |
| 20260509063335 | 59 | 150 | 2.6 | 2.6 | 0.00 | 0.00 | 0.00 | 54 | 1015.1 |
| 20260509062330 | 58 | 161 | 0.9 | 1.7 | 0.00 | 0.00 | 0.00 | 55 | 1015.1 |
| 20260509061325 | 58 | 172 | 0.9 | 1.7 | 0.00 | 0.00 | 0.00 | 55 | 1015.2 |